createdAt,value
2023-05-12T00:01:19.916Z,42.75
2023-05-12T00:03:47.335Z,43.00
2023-05-12T00:06:14.317Z,44.00
2023-05-12T00:08:41.318Z,41.50
2023-05-12T00:11:08.311Z,39.00
2023-05-12T00:13:35.287Z,42.75
2023-05-12T00:16:02.788Z,46.25
2023-05-12T00:18:29.746Z,44.00
2023-05-12T00:20:57.325Z,43.25
2023-05-12T00:23:24.230Z,43.25
2023-05-12T00:25:51.138Z,47.75
2023-05-12T00:28:18.992Z,37.00
2023-05-12T00:30:46.070Z,40.00
2023-05-12T00:33:13.113Z,38.50
2023-05-12T00:35:40.155Z,38.50
2023-05-12T00:38:07.138Z,42.00
2023-05-12T00:40:34.433Z,56.75
2023-05-12T00:43:01.496Z,55.25
2023-05-12T00:45:29.866Z,51.25
2023-05-12T00:47:57.565Z,45.00
2023-05-12T00:50:24.971Z,49.50
2023-05-12T00:52:52.742Z,45.00
2023-05-12T00:55:19.795Z,62.75
2023-05-12T00:57:46.699Z,65.00
2023-05-12T01:00:15.273Z,54.00
2023-05-12T01:02:44.666Z,55.50
2023-05-12T01:05:12.220Z,45.50
2023-05-12T01:07:40.715Z,45.75
2023-05-12T01:10:19.366Z,38.25
2023-05-12T01:12:46.808Z,44.00
2023-05-12T01:15:14.446Z,40.25
2023-05-12T01:17:49.693Z,41.75
2023-05-12T01:20:21.075Z,47.00
2023-05-12T01:22:49.771Z,45.50
2023-05-12T01:25:19.468Z,49.75
2023-05-12T01:27:46.777Z,48.25
2023-05-12T01:30:17.821Z,51.00
2023-05-12T01:32:45.497Z,48.75
2023-05-12T01:35:12.860Z,39.00
2023-05-12T01:37:46.563Z,42.00
2023-05-12T01:40:13.840Z,38.67
2023-05-12T01:42:42.560Z,43.25
2023-05-12T01:45:11.378Z,41.50
2023-05-12T01:47:38.570Z,41.50
2023-05-12T01:50:07.919Z,45.00
2023-05-12T01:52:35.131Z,37.00
2023-05-12T01:55:02.928Z,35.00
2023-05-12T01:57:35.635Z,35.33
2023-05-12T02:00:02.904Z,35.00
2023-05-12T02:02:42.783Z,31.33
2023-05-12T02:05:11.635Z,33.33
2023-05-12T02:07:38.791Z,41.75
2023-05-12T02:10:06.985Z,43.75
2023-05-12T02:12:34.706Z,43.00
2023-05-12T02:15:01.921Z,46.50
2023-05-12T02:17:30.440Z,43.50
2023-05-12T02:20:01.003Z,42.00
2023-05-12T02:22:27.929Z,34.00
2023-05-12T02:24:55.776Z,40.50
2023-05-12T02:27:22.929Z,36.25
2023-05-12T02:29:49.835Z,32.00
2023-05-12T02:32:17.637Z,32.67
2023-05-12T02:34:47.447Z,29.00
2023-05-12T02:37:15.530Z,27.00
2023-05-12T02:39:42.501Z,28.00
2023-05-12T02:42:09.452Z,31.67
2023-05-12T02:44:36.322Z,33.00
2023-05-12T02:47:03.428Z,32.67
2023-05-12T02:49:30.382Z,27.33
2023-05-12T02:51:57.269Z,30.33
2023-05-12T02:54:24.220Z,35.33
2023-05-12T02:56:51.305Z,34.00
2023-05-12T02:59:18.539Z,37.33
2023-05-12T03:01:45.374Z,36.67
2023-05-12T03:04:12.519Z,16.33
2023-05-12T03:06:39.407Z,33.33
2023-05-12T03:09:06.357Z,35.33
2023-05-12T03:11:33.312Z,35.33
2023-05-12T03:14:00.175Z,32.00
2023-05-12T03:16:27.196Z,36.00
2023-05-12T03:18:54.258Z,35.00
2023-05-12T03:21:21.449Z,33.67
2023-05-12T03:23:48.314Z,35.33
2023-05-12T03:26:15.217Z,35.33
2023-05-12T03:28:42.119Z,35.00
2023-05-12T03:31:09.018Z,34.00
2023-05-12T03:33:35.963Z,31.00
2023-05-12T03:36:03.082Z,35.33
2023-05-12T03:38:30.641Z,32.00
2023-05-12T03:41:05.235Z,31.67
2023-05-12T03:43:32.932Z,31.33
2023-05-12T03:46:00.268Z,33.00
2023-05-12T03:48:27.487Z,31.67
2023-05-12T03:50:54.381Z,32.00
2023-05-12T03:53:21.889Z,30.33
2023-05-12T03:55:48.777Z,37.33
2023-05-12T03:58:15.812Z,27.33
2023-05-12T04:00:44.226Z,27.00
2023-05-12T04:03:11.295Z,28.33
2023-05-12T04:05:39.601Z,34.00
2023-05-12T04:08:06.640Z,45.25
2023-05-12T04:10:33.695Z,36.00
2023-05-12T04:13:00.497Z,36.25
2023-05-12T04:15:28.103Z,40.75
2023-05-12T04:17:55.046Z,37.75
2023-05-12T04:20:22.433Z,42.50
2023-05-12T04:22:49.404Z,43.25
2023-05-12T04:25:16.452Z,32.00
2023-05-12T04:27:43.385Z,42.25
2023-05-12T04:30:10.718Z,37.25
2023-05-12T04:32:39.712Z,37.33
2023-05-12T04:35:07.528Z,35.00
2023-05-12T04:37:34.764Z,30.67
2023-05-12T04:40:01.735Z,31.00
2023-05-12T04:42:29.818Z,27.00
2023-05-12T04:44:57.099Z,31.33
2023-05-12T04:47:24.023Z,22.67
2023-05-12T04:49:51.462Z,42.50
2023-05-12T04:52:18.395Z,42.50
2023-05-12T04:54:45.414Z,43.00
2023-05-12T04:57:12.281Z,46.00
2023-05-12T04:59:41.310Z,47.00
2023-05-12T05:02:09.569Z,47.00
2023-05-12T05:04:36.475Z,38.75
2023-05-12T05:07:04.102Z,48.75
2023-05-12T05:09:32.585Z,43.00
2023-05-12T05:12:00.582Z,46.00
2023-05-12T05:14:27.680Z,45.00
2023-05-12T05:16:55.814Z,46.00
2023-05-12T05:19:35.586Z,44.00
2023-05-12T05:22:11.757Z,44.00
2023-05-12T05:24:38.675Z,49.50
2023-05-12T05:27:05.766Z,44.00
2023-05-12T05:29:32.722Z,64.75
2023-05-12T05:31:59.609Z,45.75
2023-05-12T05:34:26.692Z,46.25
2023-05-12T05:36:53.789Z,42.00
2023-05-12T05:39:20.672Z,39.25
2023-05-12T05:41:47.548Z,40.75
2023-05-12T05:44:14.570Z,47.25
2023-05-12T05:46:41.626Z,47.50
2023-05-12T05:49:08.650Z,51.25
2023-05-12T05:51:35.617Z,55.00
2023-05-12T05:54:03.639Z,50.25
2023-05-12T05:56:31.777Z,47.25
2023-05-12T05:59:02.608Z,45.75
2023-05-12T06:01:29.969Z,42.00
2023-05-12T06:03:57.143Z,45.25
2023-05-12T06:06:24.148Z,42.50
2023-05-12T06:08:51.248Z,42.00
2023-05-12T06:11:18.125Z,42.25
2023-05-12T06:13:45.005Z,37.25
2023-05-12T06:16:11.934Z,40.25
2023-05-12T06:18:39.127Z,46.00
2023-05-12T06:21:06.476Z,43.25
2023-05-12T06:23:34.105Z,42.00
2023-05-12T06:26:01.045Z,43.00
2023-05-12T06:28:28.207Z,45.00
2023-05-12T06:30:55.121Z,47.75
2023-05-12T06:33:21.973Z,37.75
2023-05-12T06:35:48.924Z,41.75
2023-05-12T06:38:15.985Z,44.75
2023-05-12T06:40:44.859Z,46.75
2023-05-12T06:43:12.041Z,44.25
2023-05-12T06:45:38.970Z,48.00
2023-05-12T06:48:09.518Z,44.50
2023-05-12T06:50:36.565Z,38.75
2023-05-12T06:53:06.233Z,45.75
2023-05-12T06:55:33.231Z,43.50
2023-05-12T06:58:00.195Z,44.00
2023-05-12T07:00:27.255Z,48.50
2023-05-12T07:02:54.173Z,42.50
2023-05-12T07:05:21.717Z,47.50
2023-05-12T07:07:49.357Z,43.00
2023-05-12T07:10:16.426Z,49.50
2023-05-12T07:12:43.396Z,62.25
2023-05-12T07:15:10.742Z,35.50
2023-05-12T07:17:37.850Z,41.75
2023-05-12T07:20:05.837Z,40.00
2023-05-12T07:22:32.848Z,44.00
2023-05-12T07:24:59.887Z,53.25
2023-05-12T07:27:27.019Z,47.50
2023-05-12T07:29:53.978Z,37.50
2023-05-12T07:32:20.827Z,37.00
2023-05-12T07:34:47.689Z,33.67
2023-05-12T07:37:14.712Z,35.33
2023-05-12T07:39:41.567Z,34.00
2023-05-12T07:42:09.061Z,46.00
2023-05-12T07:44:36.386Z,39.00
2023-05-12T07:47:03.307Z,39.33
2023-05-12T07:49:30.165Z,33.00
2023-05-12T07:51:57.072Z,38.00
2023-05-12T07:54:23.881Z,29.00
2023-05-12T07:56:50.820Z,24.00
2023-05-12T07:59:17.813Z,35.00
2023-05-12T08:01:44.639Z,43.75
2023-05-12T08:04:12.056Z,33.33
2023-05-12T08:06:39.011Z,30.33
2023-05-12T08:09:06.461Z,30.67
2023-05-12T08:11:33.407Z,26.67
2023-05-12T08:14:00.847Z,25.00
2023-05-12T08:16:27.866Z,34.67
2023-05-12T08:18:54.735Z,19.67
2023-05-12T08:21:21.772Z,15.25
2023-05-12T08:23:48.573Z,12.75
2023-05-12T08:26:15.507Z,19.50
2023-05-12T08:28:42.330Z,17.00
2023-05-12T08:31:09.338Z,15.75
2023-05-12T08:33:36.442Z,13.25
2023-05-12T08:36:03.649Z,15.25
2023-05-12T08:38:31.829Z,17.25
2023-05-12T08:41:41.969Z,9.25
2023-05-12T08:44:09.146Z,11.75
2023-05-12T08:46:36.691Z,9.50
2023-05-12T08:49:04.719Z,4.00
2023-05-12T08:51:38.105Z,8.00
2023-05-12T08:54:08.647Z,6.25
2023-05-12T08:59:09.508Z,7.75
2023-05-12T09:01:37.090Z,4.25
2023-05-12T09:04:07.231Z,7.00
2023-05-12T09:06:34.833Z,8.25
2023-05-12T09:09:03.159Z,6.00
2023-05-12T09:11:30.144Z,4.00
2023-05-12T09:13:56.957Z,14.50
2023-05-12T09:16:26.047Z,18.00
2023-05-12T09:18:55.430Z,18.50
2023-05-12T09:21:23.138Z,10.75
2023-05-12T09:24:03.382Z,36.00
2023-05-12T09:26:30.258Z,12.00
2023-05-12T09:29:06.801Z,34.67
2023-05-12T09:31:33.990Z,11.75
2023-05-12T09:34:02.368Z,14.50
2023-05-12T09:36:29.358Z,14.75
2023-05-12T09:39:06.908Z,10.75
2023-05-12T09:41:38.419Z,12.00
2023-05-12T09:44:06.896Z,10.25
2023-05-12T09:46:34.231Z,13.50
2023-05-12T09:49:02.740Z,9.75
2023-05-12T09:51:31.209Z,9.00
2023-05-12T09:53:59.033Z,9.25
2023-05-12T09:56:29.768Z,9.50
2023-05-12T09:58:57.302Z,14.75
2023-05-12T10:01:25.573Z,11.25
2023-05-12T10:03:57.333Z,10.50
2023-05-12T10:06:30.432Z,11.75
2023-05-12T10:09:09.601Z,10.25
2023-05-12T10:11:37.002Z,12.50
2023-05-12T10:14:05.146Z,8.00
2023-05-12T10:16:33.824Z,11.50
2023-05-12T10:19:01.681Z,11.00
2023-05-12T10:21:28.632Z,13.50
2023-05-12T10:23:57.897Z,12.75
2023-05-12T10:26:25.785Z,10.50
2023-05-12T10:28:53.331Z,11.75
2023-05-12T10:31:22.971Z,9.00
2023-05-12T10:34:02.098Z,18.00
2023-05-12T10:36:29.453Z,17.33
2023-05-12T10:39:04.421Z,19.00
2023-05-12T10:41:34.113Z,15.67
2023-05-12T10:44:01.348Z,16.00
2023-05-12T10:46:29.194Z,23.33
2023-05-12T10:49:07.712Z,16.67
2023-05-12T10:51:37.910Z,18.00
2023-05-12T10:54:07.676Z,12.33
2023-05-12T10:56:39.412Z,13.33
2023-05-12T10:59:30.056Z,19.33
2023-05-12T11:02:05.174Z,23.00
2023-05-12T11:04:41.730Z,23.67
2023-05-12T11:07:12.183Z,22.00
2023-05-12T11:12:16.882Z,26.00
2023-05-12T11:14:45.882Z,21.00
2023-05-12T11:17:14.564Z,19.00
2023-05-12T11:19:48.462Z,24.33
2023-05-12T11:22:19.787Z,14.67
2023-05-12T11:24:48.345Z,17.67
2023-05-12T11:27:19.001Z,22.33
2023-05-12T11:29:57.295Z,23.00
2023-05-12T11:32:24.831Z,14.67
2023-05-12T11:34:51.729Z,17.00
2023-05-12T11:37:21.698Z,18.67
2023-05-12T11:39:48.802Z,14.00
2023-05-12T11:42:17.802Z,16.33
2023-05-12T11:44:49.454Z,16.33
2023-05-12T11:47:17.896Z,23.67
2023-05-12T11:49:56.143Z,6.00
2023-05-12T11:52:25.543Z,11.00
2023-05-12T11:54:58.773Z,10.33
2023-05-12T11:57:34.364Z,4.25
2023-05-12T12:00:08.041Z,14.33
2023-05-12T12:02:40.318Z,18.67
2023-05-12T12:05:18.439Z,25.33
2023-05-12T12:07:46.071Z,15.00
2023-05-12T12:10:15.384Z,5.50
2023-05-12T12:12:43.758Z,9.50
2023-05-12T12:15:49.714Z,6.75
2023-05-12T12:18:17.660Z,4.00
2023-05-12T12:20:45.200Z,6.50
2023-05-12T12:23:12.724Z,7.00
2023-05-12T12:25:40.925Z,4.50
2023-05-12T12:28:08.757Z,6.00
2023-05-12T12:30:36.514Z,4.00
2023-05-12T12:33:03.490Z,2.00
2023-05-12T12:35:31.194Z,2.25
2023-05-12T12:37:59.969Z,3.00
2023-05-12T12:40:26.927Z,6.75
2023-05-12T12:42:54.168Z,4.25
2023-05-12T12:45:22.052Z,7.25
2023-05-12T12:47:52.743Z,4.25
2023-05-12T12:50:19.672Z,6.25
2023-05-12T12:52:46.463Z,15.00
2023-05-12T12:55:13.982Z,9.75
2023-05-12T12:57:41.398Z,8.00
2023-05-12T13:00:08.930Z,5.00
2023-05-12T13:02:37.032Z,6.00
2023-05-12T13:05:07.564Z,4.50
2023-05-12T13:07:35.628Z,4.00
2023-05-12T13:10:03.675Z,5.00
2023-05-12T13:12:32.612Z,5.00
2023-05-12T13:15:00.802Z,1.25
2023-05-12T13:17:29.156Z,0.75
2023-05-12T13:19:56.118Z,3.00
2023-05-12T13:22:23.734Z,2.00
2023-05-12T13:24:51.891Z,1.50
2023-05-12T13:27:18.890Z,1.25
2023-05-12T13:29:48.572Z,2.00
2023-05-12T13:32:20.175Z,2.00
2023-05-12T13:34:47.249Z,9.25
2023-05-12T13:37:14.798Z,3.00
2023-05-12T13:39:42.353Z,2.00
2023-05-12T13:42:09.261Z,3.00
2023-05-12T13:44:36.165Z,3.25
2023-05-12T13:47:04.041Z,4.00
2023-05-12T13:49:31.352Z,2.50
2023-05-12T13:51:58.384Z,3.00
2023-05-12T13:54:25.891Z,2.75
2023-05-12T13:56:53.512Z,3.75
2023-05-12T13:59:20.636Z,3.00
2023-05-12T14:01:47.614Z,3.50
2023-05-12T14:04:16.041Z,5.25
2023-05-12T14:06:42.980Z,6.00
2023-05-12T14:09:10.744Z,8.75
2023-05-12T14:11:39.154Z,7.50
2023-05-12T14:14:07.070Z,5.50
2023-05-12T14:16:35.466Z,6.50
2023-05-12T14:19:03.310Z,7.25
2023-05-12T14:21:30.223Z,6.75
2023-05-12T14:23:57.187Z,12.00
2023-05-12T14:26:26.212Z,5.00
2023-05-12T14:28:53.135Z,4.75
2023-05-12T14:31:20.068Z,4.75
2023-05-12T14:33:48.593Z,3.25
2023-05-12T14:36:15.511Z,1.50
2023-05-12T14:38:42.324Z,5.00
2023-05-12T14:41:10.422Z,4.00
2023-05-12T14:43:38.318Z,5.50
2023-05-12T14:46:06.757Z,3.75
2023-05-12T14:48:34.418Z,2.00
2023-05-12T14:51:03.581Z,4.00
2023-05-12T14:53:31.352Z,4.25
2023-05-12T14:55:58.439Z,5.00
2023-05-12T14:58:25.868Z,4.00
2023-05-12T15:00:53.814Z,6.75
2023-05-12T15:03:21.343Z,5.75
2023-05-12T15:08:21.708Z,4.25
2023-05-12T15:10:49.469Z,4.25
2023-05-12T15:13:20.428Z,8.25
2023-05-12T15:15:48.638Z,4.75
2023-05-12T15:18:16.012Z,4.50
2023-05-12T15:20:43.592Z,7.00
2023-05-12T15:23:12.597Z,7.00
2023-05-12T15:25:41.620Z,5.50
2023-05-12T15:28:08.688Z,7.50
2023-05-12T15:30:36.754Z,7.00
2023-05-12T15:33:04.800Z,6.00
2023-05-12T15:35:32.829Z,10.00
2023-05-12T15:38:01.173Z,6.75
2023-05-12T15:40:31.204Z,17.75
2023-05-12T15:42:58.592Z,9.75
2023-05-12T15:45:25.690Z,7.50
2023-05-12T15:47:52.978Z,3.00
2023-05-12T15:50:22.960Z,11.25
2023-05-12T15:52:52.063Z,7.50
2023-05-12T15:55:19.361Z,8.50
2023-05-12T15:57:47.570Z,12.00
2023-05-12T16:00:15.543Z,8.50
2023-05-12T16:02:42.834Z,8.50
2023-05-12T16:05:10.781Z,13.75
2023-05-12T16:07:38.819Z,7.50
2023-05-12T16:10:22.279Z,7.25
2023-05-12T16:12:49.855Z,7.25
2023-05-12T16:15:16.830Z,9.75
2023-05-12T16:17:44.374Z,6.75
2023-05-12T16:20:12.842Z,6.75
2023-05-12T16:22:39.739Z,13.00
2023-05-12T16:25:08.938Z,9.33
2023-05-12T16:27:36.777Z,8.33
2023-05-12T16:30:04.878Z,9.67
2023-05-12T16:32:32.833Z,8.00
2023-05-12T16:35:00.867Z,8.00
2023-05-12T16:37:28.092Z,7.00
2023-05-12T16:39:56.223Z,7.67
2023-05-12T16:42:23.770Z,6.75
2023-05-12T16:44:55.253Z,8.50
2023-05-12T16:47:22.757Z,7.00
2023-05-12T16:49:53.636Z,6.25
2023-05-12T16:52:20.804Z,6.67
2023-05-12T16:54:47.952Z,10.33
2023-05-12T16:57:14.925Z,8.33
2023-05-12T16:59:41.914Z,9.00
2023-05-12T17:02:11.088Z,9.00
2023-05-12T17:04:38.132Z,10.00
2023-05-12T17:07:05.208Z,8.67
2023-05-12T17:09:32.021Z,9.00
2023-05-12T17:11:58.997Z,10.00
2023-05-12T17:14:25.863Z,10.67
2023-05-12T17:16:53.530Z,11.67
2023-05-12T17:19:22.295Z,10.00
2023-05-12T17:21:49.334Z,11.67
2023-05-12T17:24:17.829Z,17.33
2023-05-12T17:26:45.115Z,14.00
2023-05-12T17:29:12.098Z,21.33
2023-05-12T17:31:39.719Z,14.00
2023-05-12T17:34:07.681Z,15.67
2023-05-12T17:36:34.797Z,30.00
2023-05-12T17:39:03.001Z,25.67
2023-05-12T17:41:30.442Z,30.33
2023-05-12T17:43:58.861Z,25.67
2023-05-12T17:46:25.856Z,24.00
2023-05-12T17:48:54.064Z,19.67
2023-05-12T17:51:21.920Z,25.33
2023-05-12T17:53:48.879Z,21.00
2023-05-12T17:56:15.684Z,21.33
2023-05-12T17:58:42.556Z,28.33
2023-05-12T18:01:09.563Z,38.00
2023-05-12T18:03:37.439Z,44.00
2023-05-12T18:06:05.756Z,139.00
2023-05-12T18:08:32.680Z,37.00
2023-05-12T18:10:59.662Z,49.75
2023-05-12T18:13:26.802Z,45.50
2023-05-12T18:15:54.439Z,27.00
2023-05-12T18:18:22.821Z,44.50
2023-05-12T18:20:49.750Z,24.00
2023-05-12T18:23:17.265Z,25.00
2023-05-12T18:25:44.092Z,19.33
2023-05-12T18:28:10.953Z,23.00
2023-05-12T18:30:38.284Z,24.00
2023-05-12T18:33:06.624Z,27.33
2023-05-12T18:35:35.249Z,24.00
2023-05-12T18:38:02.149Z,38.33
2023-05-12T18:40:29.040Z,15.67
2023-05-12T18:42:55.922Z,23.33
2023-05-12T18:45:23.471Z,18.33
2023-05-12T18:47:52.460Z,13.00
2023-05-12T18:50:19.382Z,13.33
2023-05-12T18:52:46.192Z,37.00
2023-05-12T18:55:13.078Z,49.00
2023-05-12T18:57:40.007Z,24.67
2023-05-12T19:00:07.561Z,23.00
2023-05-12T19:02:34.811Z,24.00
2023-05-12T19:05:03.676Z,20.67
2023-05-12T19:07:30.635Z,46.75
2023-05-12T19:09:57.563Z,40.75
2023-05-12T19:12:24.649Z,31.00
2023-05-12T19:14:51.521Z,37.50
2023-05-12T19:17:20.172Z,33.33
2023-05-12T19:19:47.325Z,36.50
2023-05-12T19:22:14.214Z,27.00
2023-05-12T19:24:41.193Z,29.00
2023-05-12T19:27:08.451Z,34.67
2023-05-12T19:29:35.256Z,35.67
2023-05-12T19:32:02.274Z,40.33
2023-05-12T19:34:31.384Z,41.25
2023-05-12T19:37:01.740Z,41.00
2023-05-12T19:39:29.794Z,37.00
2023-05-12T19:41:56.653Z,34.33
2023-05-12T19:44:24.529Z,33.00
2023-05-12T19:46:52.923Z,40.00
2023-05-12T19:49:21.046Z,39.25
2023-05-12T19:51:48.938Z,39.00
2023-05-12T19:54:16.690Z,38.00
2023-05-12T19:56:44.920Z,38.50
2023-05-12T19:59:11.864Z,37.50
2023-05-12T20:01:38.856Z,39.25
2023-05-12T20:04:07.551Z,49.00
2023-05-12T20:06:35.871Z,52.25
2023-05-12T20:09:02.780Z,49.25
2023-05-12T20:11:29.647Z,31.67
2023-05-12T20:13:56.516Z,36.00
2023-05-12T20:16:23.454Z,38.25
2023-05-12T20:18:51.534Z,34.00
2023-05-12T20:21:19.148Z,32.67
2023-05-12T20:23:46.209Z,37.00
2023-05-12T20:26:13.303Z,40.00
2023-05-12T20:28:41.150Z,34.00
2023-05-12T20:31:11.265Z,31.33
2023-05-12T20:33:38.185Z,36.67
2023-05-12T20:36:05.424Z,37.25
2023-05-12T20:38:32.309Z,37.33
2023-05-12T20:41:07.183Z,29.33
2023-05-12T20:43:35.064Z,28.67
2023-05-12T20:46:05.902Z,28.67
2023-05-12T20:48:33.168Z,27.67
2023-05-12T20:51:09.313Z,35.00
2023-05-12T20:53:36.693Z,36.00
2023-05-12T20:56:04.669Z,36.50
2023-05-12T20:58:32.288Z,44.50
2023-05-12T21:00:59.299Z,30.00
2023-05-12T21:03:27.489Z,43.00
2023-05-12T21:05:56.380Z,41.50
2023-05-12T21:08:24.693Z,32.25
2023-05-12T21:10:51.596Z,37.25
2023-05-12T21:13:19.656Z,37.00
2023-05-12T21:15:47.396Z,42.50
2023-05-12T21:18:14.576Z,45.00
2023-05-12T21:20:41.525Z,46.00
2023-05-12T21:23:11.837Z,32.25
2023-05-12T21:25:39.193Z,44.00
2023-05-12T21:28:07.135Z,39.00
2023-05-12T21:30:36.309Z,42.25
2023-05-12T21:33:05.469Z,48.75
2023-05-12T21:35:33.139Z,41.50
2023-05-12T21:38:01.276Z,33.00
2023-05-12T21:40:30.343Z,33.00
2023-05-12T21:42:58.849Z,33.50
2023-05-12T21:45:26.129Z,38.75
2023-05-12T21:47:53.289Z,18.67
2023-05-12T21:50:23.468Z,33.67
2023-05-12T21:52:50.723Z,38.25
2023-05-12T21:55:17.789Z,35.00
2023-05-12T21:57:45.946Z,25.33
2023-05-12T22:00:14.744Z,26.67
2023-05-12T22:02:41.783Z,42.00
2023-05-12T22:05:09.130Z,43.75
2023-05-12T22:07:37.556Z,32.25
2023-05-12T22:10:05.535Z,34.00
2023-05-12T22:12:32.385Z,35.25
2023-05-12T22:14:59.458Z,33.25
2023-05-12T22:17:26.441Z,36.50
2023-05-12T22:19:53.554Z,32.75
2023-05-12T22:22:22.304Z,40.50
2023-05-12T22:24:49.153Z,39.75
2023-05-12T22:27:21.769Z,43.25
2023-05-12T22:29:49.118Z,39.75
2023-05-12T22:32:16.111Z,44.00
2023-05-12T22:34:44.134Z,36.25
2023-05-12T22:37:11.958Z,34.75
2023-05-12T22:39:39.043Z,41.50
2023-05-12T22:42:06.498Z,35.50
2023-05-12T22:44:33.329Z,32.25
2023-05-12T22:47:00.298Z,33.00
2023-05-12T22:49:27.126Z,32.00
2023-05-12T22:51:54.341Z,25.67
2023-05-12T22:54:22.960Z,31.33
2023-05-12T22:56:50.175Z,34.50
2023-05-12T22:59:17.160Z,35.75
2023-05-12T23:01:44.600Z,34.50
2023-05-12T23:04:12.470Z,30.25
2023-05-12T23:06:40.246Z,34.00
2023-05-12T23:09:07.359Z,35.00
2023-05-12T23:11:34.326Z,33.00
2023-05-12T23:14:01.195Z,33.50
2023-05-12T23:16:28.362Z,34.25
2023-05-12T23:18:56.569Z,29.25
2023-05-12T23:21:24.239Z,44.25
2023-05-12T23:23:51.264Z,34.00
2023-05-12T23:26:18.232Z,37.25
2023-05-12T23:28:45.112Z,33.75
2023-05-12T23:31:12.053Z,29.75
2023-05-12T23:33:38.976Z,30.75
2023-05-12T23:36:07.090Z,29.25
2023-05-12T23:38:35.377Z,25.75
2023-05-12T23:41:02.266Z,28.75
2023-05-12T23:43:29.198Z,25.00
2023-05-12T23:45:56.251Z,34.00
2023-05-12T23:48:23.139Z,28.00
2023-05-12T23:50:50.353Z,34.00
2023-05-12T23:53:17.679Z,19.75
2023-05-12T23:55:46.231Z,34.25
2023-05-12T23:58:13.605Z,37.75
